Redmond, Oregon
Current Conditions -  °F | °C
As of 1:56 AM on Friday 21 Nov 2014 (Local Time) from KRDM Reporting Station
Clear Clear  
Wind Chill: -1°   Ceiling: Unl
Heat Index:   Visibility: 10mi
Dew Point:   Wind: 5mph
Humidity: 92%   Direction: 200°SSW
Pressure: 29.95"   Gusts: NA
Location:  44.27°N, 121.17°W
Report Text: KRDM 210956Z AUTO 20004KT 10SM CLR 01/00 A2995 RMK AO2 SLP149 T00110000
Loading
Personal Weather Stations






























Interactive Weather Map New forecast layout! Learn more

10-Day Weather Forecast

Advertisements
Track Severe Weather on mobile